Flight Track Log - Related Links

Times and Time Zones

All times are in EDT time to prevent confusion due to time zone crossing. See the QXE2633 flight status page for this flight to view local times or setup timezone preferences in your user account.

Time Position Orientation Groundspeed Altitude Reporting Facility
EDT Latitude Longitude Course Direction KTS MPH feet Rate Location/Type
Wed 17:44:00 45.0309 -122.5067 173° South  Level Estimated
Wed 17:45:00 44.9512 -122.4939 174° South  Level Estimated
Wed 17:46:00 44.8715 -122.4812 174° South  Level Estimated
Wed 17:47:00 44.7918 -122.4686 174° South  Level Estimated
Wed 17:48:00 44.7121 -122.4559 174° South  Level Estimated
Wed 17:49:00 44.6324 -122.4433 174° South  Level Estimated
Wed 17:50:00 44.5527 -122.4308 174° South  Level Estimated
Wed 17:51:00 44.4729 -122.4182 174° South  Level Estimated
Wed 17:52:00 44.3932 -122.4057 174° South  Level Estimated
Wed 17:53:00 44.3135 -122.3933 174° South  Level Estimated
Wed 17:54:00 44.2338 -122.3809 174° South  Level Estimated
Wed 17:55:00 44.1541 -122.3684 174° South  Level Estimated
Wed 17:56:00 44.0744 -122.3561 174° South  Level Estimated
Wed 17:57:00 43.9947 -122.3438 174° South  Level Estimated
Wed 17:58:00 43.9150 -122.3315 174° South  Level Estimated
Wed 17:59:00 43.8352 -122.3192 174° South  Level Estimated
Wed 18:00:00 43.7555 -122.3070 174° South  Level Estimated
Wed 18:01:00 43.6758 -122.2948 174° South  Level Estimated
Wed 18:02:00 43.5961 -122.2826 174° South  Level Estimated
Wed 18:03:00 43.5163 -122.2705 174° South  Level Estimated
Wed 18:04:00 43.4366 -122.2584 174° South  Level Estimated
Wed 18:05:00 43.3569 -122.2463 174° South  Level Estimated
Wed 18:06:00 43.2772 -122.2343 174° South  Level Estimated
Wed 18:07:00 43.1974 -122.2223 174° South  Level Estimated
Wed 18:08:00 43.1177 -122.2103 174° South  Level Estimated
Wed 18:09:00 43.0380 -122.1983 174° South  Level Estimated
Wed 18:10:00 42.9582 -122.1864 174° South  Level Estimated
Wed 18:11:00 42.8785 -122.1746 174° South  Level Estimated
Wed 18:12:00 42.7988 -122.1627 174° South  Level Estimated
Wed 18:13:00 42.7191 -122.1509 174° South  Level Estimated
Wed 18:14:00 42.6393 -122.1391 174° South  Level Estimated
Wed 18:15:00 42.5667 -122.1284 174° South  Level Estimated
Wed 18:16:00 42.4941 -122.1177 174° South  Level Estimated
Wed 18:17:00 42.4215 -122.1070 174° South  Level Estimated
Wed 18:18:00 42.3489 -122.0964 174° South  Level Estimated
Wed 18:19:00 42.2763 -122.0858 174° South  Level Estimated
Wed 18:20:00 42.2037 -122.0752 174° South  Level Estimated
Wed 18:21:00 42.1310 -122.0646 174° South  Level Estimated
Wed 18:22:00 42.0584 -122.0541 174° South  Level Estimated
Wed 18:23:00 41.9858 -122.0436 174° South  Level Estimated
Wed 18:24:00 41.9132 -122.0331 174° South  Level Estimated
Wed 18:25:00 41.8399 -122.0225 174° South  Level Estimated
Wed 18:26:00 41.7666 -122.0120 174° South  Level Estimated
Wed 18:27:00 41.6933 -122.0015 174° South  Level Estimated
Wed 18:28:00 41.6200 -121.9910 174° South  Level Estimated
Wed 18:29:00 41.5466 -121.9805 174° South  Level Estimated
Wed 18:30:00 41.4733 -121.9701 174° South  Level Estimated
Wed 18:31:00 41.4000 -121.9596 174° South  Level Estimated
Wed 18:32:00 41.3267 -121.9492 174° South  Level Estimated
Wed 18:33:00 41.2534 -121.9389 174° South  Level Estimated
Wed 18:34:00 41.1801 -121.9285 174° South  Level Estimated
Wed 18:35:00 41.1068 -121.9182 174° South  Level Estimated
Wed 18:36:00 41.0334 -121.9079 174° South  Level Estimated
Wed 18:37:00 40.9601 -121.8976 174° South  Level Estimated
Wed 18:38:00 40.8868 -121.8873 174° South  Level Estimated
Wed 18:39:00 40.8135 -121.8771 174° South  Level Estimated
Wed 18:40:00 40.7402 -121.8669 174° South  Level Estimated
Wed 18:41:00 40.6668 -121.8567 174° South  Level Estimated
Wed 18:42:00 40.5935 -121.8465 174° South  Level Estimated
Wed 18:43:00 40.5202 -121.8364 174° South  Level Estimated
Wed 18:44:00 40.4469 -121.8263 174° South  Level Estimated
Wed 18:45:00 40.3735 -121.8162 174° South  Level Estimated
Wed 18:46:00 40.3002 -121.8061 174° South  Level Estimated
Wed 18:47:00 40.2269 -121.7960 174° South  Level Estimated
Wed 18:48:00 40.1535 -121.7860 174° South  Level Estimated
Wed 18:49:00 40.0802 -121.7760 174° South  Level Estimated
Wed 18:50:00 40.0069 -121.7660 174° South  Level Estimated
Wed 18:51:00 39.9332 -121.7560 180° South  Level Estimated
Wed 18:52:00 39.8596 -121.7459 176° South  Level Estimated
Wed 18:53:00 39.7876 -121.7233 166° South  Level FlightAware Approximate
Wed 18:54:00 39.7177 -121.6925 161° South  Level FlightAware Approximate
Wed 18:55:00 39.6479 -121.6617 161° South  Level FlightAware Approximate
Wed 18:56:00 39.5701 -121.6333 180° South  Level FlightAware Approximate
Wed 18:57:00 39.4964 -121.6333 180° South  Level FlightAware Approximate
Wed 18:58:00 39.4228 -121.6273 176° South  Level FlightAware Approximate
Wed 18:59:00 39.3493 -121.6199 176° South  Level FlightAware Approximate
Wed 19:00:00 39.2757 -121.6167 180° South  Level FlightAware Approximate
Wed 19:01:00 39.2021 -121.6127 174° South  Level FlightAware Approximate
Wed 19:02:00 39.1287 -121.6036 174° South  Level FlightAware Approximate
Wed 19:03:00 39.0552 -121.5936 174° South  Level FlightAware Approximate
Wed 19:04:00 38.9818 -121.5833 180° South  Level FlightAware Approximate
Wed 19:05:00 38.9080 -121.5833 180° South  Level FlightAware Approximate
Wed 19:06:00 38.8342 -121.5833 180° South  Level FlightAware Approximate
Wed 19:07:00 38.7604 -121.5833 180° South  Level FlightAware Approximate
Wed 19:08:00 38.6954 -121.5908 180° South  Level Estimated
Wed 19:09:00 38.6954 -121.5908 180° South  Level Estimated
Wed 19:10:00 38.6954 -121.5908 180° South  Level Estimated
Wed 19:11:00 38.6954 -121.5908 180° South  Level Estimated
Wed 19:12:00 38.6954 -121.5908 180° South  Level Estimated
Wed 19:13:00 38.6954 -121.5908 180° South  Level Estimated
Wed 19:14:00 38.6954 -121.5908 180° South  Level Estimated
Wed 19:15:00 38.6954 -121.5908 180° South  Level Estimated
Wed 19:16:00 38.6954 -121.5908 180° South  Level Estimated
Wed 19:17:00 38.6954 -121.5908 180° South  Level Estimated
Wed 19:18:00 38.6954 -121.5908 180° South  Level Estimated
Wed 19:19:00 38.6954 -121.5908 180° South  Level Estimated
Wed 19:20:00 38.6954 -121.5908 180° South  Level Estimated
Wed 19:21:00 38.6954 -121.5908 180° South  Level Estimated
Wed 19:22:00 38.6954 -121.5908 180° South  Level Estimated
Wed 19:23:00 38.6954 -121.5908 180° South  Level Estimated
Wed 19:24:00 38.6954 -121.5908 180° South  Level Estimated
Wed 19:25:00 38.6954 -121.5908 180° South  Level Estimated
Wed 19:26:00 38.6954 -121.5908 180° South  Level Estimated
Wed 19:27:00 38.6954 -121.5908 180° South  Level Estimated

Login

Don't have an account? Register now (free) for customized features, flight alerts, and more!